Melfa, VA

2:26 PM EDT on June 25, 2017 (GMT -0400)
Accomack County

Weather History for KMFV - June, 2013

Change the Weather History Date:

Saturday, June 22, 2013

  Actual Average (KWAL) Record (KWAL)
Temperature  
Mean Temperature 72 °F -  
Max Temperature 82 °F 80 °F 93 °F (1981)
Min Temperature 62 °F 65 °F 50 °F (1992)
Cooling Degree Days 7    
Growing Degree Days 22 (Base 50)    
Moisture  
Dew Point 63 °F    
Average Humidity 70    
Maximum Humidity 94    
Minimum Humidity 51    
Precipitation  
Precipitation 0.00 in - - ()
Sea Level Pressure  
Sea Level Pressure 30.24 in    
Wind  
Wind Speed 3 mph (ESE)    
Max Wind Speed 9 mph    
Max Gust Speed -    
Visibility 10 miles    
Events      
Averages and records for this station are not official NWS values.
T = Trace of Precipitation, MM = Missing Value Source: NWS Daily Summary

Daily Weather History Graph

Daily Weather History Graph

Search for Another Location

Airport or City:

Trip Planner

Search our weather history database for the weather conditions in past years. The results will help you decide how hot, cold, wet, or windy it might be!

Date:

Astronomy

Jun. 22, 2013 Rise Set
Actual Time 5:42 AM EDT 8:28 PM EDT
Civil Twilight 5:10 AM EDT 8:59 PM EDT
Nautical Twilight 4:31 AM EDT 9:38 PM EDT
Astronomical Twilight 3:47 AM EDT 10:22 PM EDT
Moon 7:41 PM EDT (6/22) 4:51 AM EDT (6/22)
Length of Visible Light 15h 48m
Length of Day
14h 46m
Waxing Gibbous, 99% of the Moon is Illuminated
Jun 22
Waxing Gibbous
Jun 23
Full
Jun 30
Last Quarter
Jul 8
New
Jul 15
First Quarter

Hourly Weather History & Observations

Time (EDT) Temp. Heat Index Dew Point Humidity Pressure Visibility Wind Dir Wind Speed Gust Speed Precip Events Conditions
12:16 AM 66.2 °F - 62.6 °F 88% 30.26 in 7.0 mi East 4.6 mph - N/A   Clear
12:36 AM 66.2 °F - 62.6 °F 88% 30.26 in 10.0 mi East 4.6 mph - N/A   Clear
12:56 AM 66.2 °F - 62.6 °F 88% 30.26 in 10.0 mi Calm Calm - N/A   Clear
1:16 AM 66.2 °F - 62.6 °F 88% 30.25 in 10.0 mi Calm Calm - N/A   Clear
1:36 AM 66.2 °F - 62.6 °F 88% 30.25 in 10.0 mi Calm Calm - N/A   Clear
1:56 AM 66.2 °F - 62.6 °F 88% 30.25 in 10.0 mi Calm Calm - N/A   Clear
2:16 AM 66.2 °F - 62.6 °F 88% 30.25 in 10.0 mi Calm Calm - N/A   Clear
2:37 AM 66.2 °F - 62.6 °F 88% 30.24 in 10.0 mi ESE 3.5 mph - N/A   Clear
2:56 AM 66.2 °F - 62.6 °F 88% 30.23 in 10.0 mi Calm Calm - N/A   Clear
3:16 AM 66.2 °F - 62.6 °F 88% 30.23 in 10.0 mi Calm Calm - N/A   Clear
3:36 AM 66.2 °F - 62.6 °F 88% 30.24 in 10.0 mi East 4.6 mph - N/A   Clear
3:56 AM 64.4 °F - 60.8 °F 88% 30.24 in 10.0 mi East 3.5 mph - N/A   Clear
4:16 AM 64.4 °F - 62.6 °F 94% 30.24 in 10.0 mi East 5.8 mph - N/A   Clear
4:36 AM 64.4 °F - 60.8 °F 88% 30.24 in 10.0 mi Calm Calm - N/A   Clear
4:56 AM 64.4 °F - 60.8 °F 88% 30.25 in 10.0 mi Calm Calm - N/A   Scattered Clouds
5:16 AM 64.4 °F - 62.6 °F 94% 30.25 in 10.0 mi Calm Calm - N/A   Scattered Clouds
5:36 AM 62.6 °F - 60.8 °F 94% 30.26 in 7.0 mi Calm Calm - N/A   Clear
5:56 AM 62.6 °F - 60.8 °F 94% 30.26 in 7.0 mi Calm Calm - N/A   Clear
6:16 AM 62.6 °F - 60.8 °F 94% 30.26 in 5.0 mi Calm Calm - N/A   Clear
6:36 AM 64.4 °F - 62.6 °F 94% 30.26 in 10.0 mi East 3.5 mph - N/A   Clear
6:56 AM 66.2 °F - 64.4 °F 94% 30.26 in 10.0 mi Calm Calm - N/A   Clear
7:17 AM 69.8 °F - 66.2 °F 88% 30.26 in 10.0 mi Calm Calm - N/A   Clear
7:36 AM 71.6 °F - 64.4 °F 78% 30.26 in 10.0 mi Calm Calm - N/A   Clear
7:56 AM 73.4 °F - 64.4 °F 73% 30.25 in 10.0 mi East 4.6 mph - N/A   Clear
8:16 AM 75.2 °F - 64.4 °F 69% 30.26 in 4.0 mi ESE 3.5 mph - N/A   Haze
8:36 AM 77.0 °F - 66.2 °F 69% 30.25 in 10.0 mi Calm Calm - N/A   Clear
8:58 AM 78.8 °F - 64.4 °F 61% 30.25 in 10.0 mi East 4.6 mph - N/A   Clear
9:16 AM 78.8 °F - 64.4 °F 61% 30.25 in 10.0 mi ESE 4.6 mph - N/A   Clear
9:36 AM 78.8 °F - 64.4 °F 61% 30.25 in 10.0 mi East 3.5 mph - N/A   Clear
9:56 AM 80.6 °F 82.7 °F 66.2 °F 61% 30.24 in 10.0 mi ENE 4.6 mph - N/A   Clear
10:16 AM 80.6 °F 82.3 °F 64.4 °F 58% 30.23 in 10.0 mi ESE 4.6 mph - N/A   Clear
10:37 AM 80.6 °F 82.3 °F 64.4 °F 58% 30.23 in 10.0 mi ESE 4.6 mph - N/A   Clear
10:56 AM 82.4 °F 83.4 °F 62.6 °F 51% 30.23 in 10.0 mi SE 4.6 mph - N/A   Clear
11:16 AM 82.4 °F 83.9 °F 64.4 °F 54% 30.24 in 10.0 mi ESE 5.8 mph - N/A   Clear
11:37 AM 82.4 °F 83.9 °F 64.4 °F 54% 30.25 in 10.0 mi East 5.8 mph - N/A   Clear
11:56 AM 82.4 °F 83.9 °F 64.4 °F 54% 30.25 in 10.0 mi East 5.8 mph - N/A   Clear
12:16 PM 82.4 °F 83.9 °F 64.4 °F 54% 30.26 in 10.0 mi East 6.9 mph - N/A   Clear
12:37 PM 82.4 °F 83.9 °F 64.4 °F 54% 30.25 in 10.0 mi East 5.8 mph - N/A   Clear
12:56 PM 82.4 °F 83.9 °F 64.4 °F 54% 30.25 in 10.0 mi ESE 5.8 mph - N/A   Clear
1:16 PM 82.4 °F 83.9 °F 64.4 °F 54% 30.25 in 10.0 mi East 6.9 mph - N/A   Clear
1:36 PM 82.4 °F 83.9 °F 64.4 °F 54% 30.25 in 10.0 mi ENE 8.1 mph - N/A   Clear
1:56 PM 82.4 °F 83.4 °F 62.6 °F 51% 30.26 in 10.0 mi ESE 6.9 mph - N/A   Clear
2:17 PM 82.4 °F 83.4 °F 62.6 °F 51% 30.26 in 10.0 mi ESE 5.8 mph - N/A   Clear
2:36 PM 82.4 °F 83.4 °F 62.6 °F 51% 30.26 in 10.0 mi East 8.1 mph - N/A   Clear
2:56 PM 80.6 °F 81.8 °F 62.6 °F 54% 30.26 in 10.0 mi East 6.9 mph - N/A   Scattered Clouds
3:16 PM 80.6 °F 81.8 °F 62.6 °F 54% 30.26 in 10.0 mi East 6.9 mph - N/A   Scattered Clouds
3:36 PM 80.6 °F 81.8 °F 62.6 °F 54% 30.25 in 10.0 mi East 5.8 mph - N/A   Clear
3:56 PM 80.6 °F 82.3 °F 64.4 °F 58% 30.24 in 10.0 mi ESE 4.6 mph - N/A   Clear
4:16 PM 80.6 °F 82.3 °F 64.4 °F 58% 30.23 in 10.0 mi ESE 8.1 mph - N/A   Clear
4:36 PM 80.6 °F 81.8 °F 62.6 °F 54% 30.23 in 10.0 mi ESE 9.2 mph - N/A   Clear
4:56 PM 80.6 °F 81.8 °F 62.6 °F 54% 30.22 in 10.0 mi SE 9.2 mph - N/A   Clear
5:16 PM 78.8 °F - 62.6 °F 57% 30.21 in 10.0 mi SE 8.1 mph - N/A   Clear
5:36 PM 78.8 °F - 60.8 °F 54% 30.21 in 10.0 mi East 6.9 mph - N/A   Clear
5:56 PM 78.8 °F - 60.8 °F 54% 30.21 in 10.0 mi SE 5.8 mph - N/A   Clear
6:16 PM 78.8 °F - 60.8 °F 54% 30.21 in 10.0 mi SE 9.2 mph - N/A   Clear
6:36 PM 78.8 °F - 60.8 °F 54% 30.22 in 10.0 mi SE 8.1 mph - N/A   Clear
6:56 PM 77.0 °F - 60.8 °F 57% 30.22 in 10.0 mi SE 4.6 mph - N/A   Clear
7:17 PM 75.2 °F - 60.8 °F 61% 30.20 in 10.0 mi SSE 9.2 mph - N/A   Clear
7:36 PM 75.2 °F - 62.6 °F 65% 30.19 in 10.0 mi SSE 6.9 mph - N/A   Clear
7:56 PM 75.2 °F - 62.6 °F 65% 30.20 in 10.0 mi ESE 5.8 mph - N/A   Clear
8:16 PM 73.4 °F - 62.6 °F 69% 30.19 in 10.0 mi SE 6.9 mph - N/A   Clear
8:36 PM 73.4 °F - 64.4 °F 73% 30.19 in 10.0 mi SE 4.6 mph - N/A   Clear
8:56 PM 73.4 °F - 64.4 °F 73% 30.19 in 10.0 mi SE 5.8 mph - N/A   Clear
9:16 PM 73.4 °F - 62.6 °F 69% 30.19 in 10.0 mi SE 3.5 mph - N/A   Clear
9:36 PM 73.4 °F - 62.6 °F 69% 30.20 in 10.0 mi Calm Calm - N/A   Clear
9:56 PM 71.6 °F - 62.6 °F 73% 30.20 in 10.0 mi ENE 6.9 mph - N/A   Clear
10:16 PM 71.6 °F - 62.6 °F 73% 30.20 in 10.0 mi ESE 3.5 mph - N/A   Clear
10:36 PM 71.6 °F - 62.6 °F 73% 30.20 in 10.0 mi ESE 4.6 mph - N/A   Clear
10:57 PM 71.6 °F - 62.6 °F 73% 30.20 in 10.0 mi Calm Calm - N/A   Clear
11:16 PM 71.6 °F - 64.4 °F 78% 30.21 in 10.0 mi Calm Calm - N/A   Clear
11:36 PM 71.6 °F - 64.4 °F 78% 30.21 in 10.0 mi Calm Calm - N/A   Clear
11:57 PM 71.6 °F - 64.4 °F 78% 30.21 in 10.0 mi Calm Calm - N/A   Clear